Flight Track Log - Related Links

Times and Time Zones

All times are in EDT time to prevent confusion due to time zone crossing. See the SWA471 flight status page for this flight to view local times or setup timezone preferences in your user account.

Time Position Orientation Groundspeed Altitude Reporting Facility
EDT Latitude Longitude Course Direction KTS MPH feet Rate Location/Type
Thu 11:59:47 PM 39.3167 -94.7167 322° Northwest 157 181 1,700  Level Kansas City TRACON
Fri 12:00:05 AM 39.3333 -94.7333 322° Northwest 150 173 2,500 2,385 Climbing Kansas City TRACON
Fri 12:01:05 AM 39.3333 -94.7833 270° West 207 238 4,800 2,496 Climbing Kansas City TRACON
Fri 12:02:10 AM 39.2822 -94.8567 228° Southwest 274 315 7,700 2,723 Climbing Kansas City Center
Fri 12:03:15 AM 39.2047 -94.8658 185° South 289 333 10,700 2,400 Climbing Kansas City Center
Fri 12:04:15 AM 39.1119 -94.8786 186° South 350 403 12,700 2,727 Climbing Kansas City Center
Fri 12:05:16 AM 39.0031 -94.8944 186° South 348 400 16,200 2,700 Climbing Kansas City Center
Fri 12:06:15 AM 38.9039 -94.9083 186° South 369 425 18,100 2,508 Climbing Kansas City Center
Fri 12:07:18 AM 38.8022 -94.9211 186° South 380 437 21,300 3,264 Climbing Kansas City Center
Fri 12:08:20 AM 38.6981 -94.9439 190° South 339 390 24,900 2,293 Climbing Kansas City Center
Fri 12:09:21 AM 38.6103 -94.9756 196° South 341 392 26,000 1,279 Climbing Kansas City Center
Fri 12:10:22 AM 38.5175 -95.0067 195° South 357 411 27,500 1,869 Climbing Kansas City Center
Fri 12:11:23 AM 38.4106 -95.0450 196° South 357 411 29,800 1,950 Climbing Kansas City Center
Fri 12:12:22 AM 38.3211 -95.0758 195° South 349 402 31,400 1,100 Climbing Kansas City Center
Fri 12:13:23 AM 38.2178 -95.1125 196° South 346 398 32,000 293 Climbing Kansas City Center
Fri 12:14:25 AM 38.1250 -95.1431 195° South 354 407 32,000 195 Level Kansas City Center
Fri 12:15:26 AM 38.0350 -95.1733 195° South 353 406 32,400 488 Climbing Kansas City Center
Fri 12:16:28 AM 37.9272 -95.2111 195° South 351 404 33,000 942 Climbing Kansas City Center
Fri 12:17:27 AM 37.8325 -95.2414 194° South 350 403 34,300 1,150 Climbing Kansas City Center
Fri 12:18:28 AM 37.7392 -95.2781 197° South 349 402 35,300 726 Climbing Kansas City Center
Fri 12:19:31 AM 37.6444 -95.3072 194° South 350 403 35,800 339 Climbing Kansas City Center
Fri 12:20:32 AM 37.5458 -95.3400 195° South 360 414 36,000 98 Climbing Kansas City Center
Fri 12:21:34 AM 37.4489 -95.3744 196° South 362 417 36,000  Level Kansas City Center
Fri 12:22:33 AM 37.3514 -95.4061 194° South 361 415 36,000  Level Kansas City Center
Fri 12:23:35 AM 37.2536 -95.4383 195° South 362 417 36,000  Level Kansas City Center
Fri 12:24:34 AM 37.1556 -95.4722 195° South 364 419 36,000  Level Kansas City Center
Fri 12:25:38 AM 37.0572 -95.5047 195° South 364 419 36,000  Level Kansas City Center
Fri 12:26:39 AM 36.9592 -95.5361 194° South 363 418 36,000  Level Kansas City Center
Fri 12:27:40 AM 36.8600 -95.5697 195° South 367 422 36,000  Level Kansas City Center
Fri 12:28:38 AM 36.7628 -95.6022 195° South 365 420 36,000  Level Kansas City Center
Fri 12:29:42 AM 36.6475 -95.6403 195° South 360 414 36,000  Level Kansas City Center
Fri 12:30:42 AM 36.5592 -95.6692 195° South 361 415 36,000  Level Kansas City Center
Fri 12:31:43 AM 36.4617 -95.7006 195° South 362 417 36,000  Level Kansas City Center
Fri 12:32:45 AM 36.3650 -95.7319 195° South 360 414 36,000  Level Kansas City Center
Fri 12:33:46 AM 36.2619 -95.7669 195° South 360 414 36,000  Level Kansas City Center
Fri 12:34:47 AM 36.1619 -95.7778 185° South 372 428 36,000  Level Kansas City Center
Fri 12:35:48 AM 36.0572 -95.7431 165° South 389 448 36,000  Level Kansas City Center
Fri 12:36:49 AM 35.9564 -95.7458 181° South 369 425 36,000  Level Kansas City Center
Fri 12:37:49 AM 35.8583 -95.7664 190° South 357 411 36,000  Level Kansas City Center
Fri 12:38:50 AM 35.7619 -95.7892 191° South 354 407 36,000  Level Kansas City Center
Fri 12:39:51 AM 35.6650 -95.8103 190° South 352 405 36,000  Level Kansas City Center
Fri 12:40:15 AM 35.6069 -95.8256 192° South 357 411 36,000  Level Fort Worth Center
Fri 12:41:15 AM 35.5111 -95.8478 191° South 352 405 36,000  Level Fort Worth Center
Fri 12:42:15 AM 35.4133 -95.8700 190° South 352 405 36,000  Level Fort Worth Center
Fri 12:43:15 AM 35.3136 -95.8897 189° South 359 413 36,000  Level Fort Worth Center
Fri 12:44:15 AM 35.2158 -95.9117 190° South 359 413 36,000  Level Fort Worth Center
Fri 12:45:15 AM 35.1203 -95.9339 191° South 354 407 36,000  Level Fort Worth Center
Fri 12:46:15 AM 35.0244 -95.9531 189° South 354 407 36,000  Level Fort Worth Center
Fri 12:47:15 AM 34.9267 -95.9750 190° South 354 407 36,000  Level Fort Worth Center
Fri 12:48:15 AM 34.8289 -95.9969 190° South 354 407 36,000  Level Fort Worth Center
Fri 12:49:15 AM 34.7353 -96.0186 191° South 354 407 36,000  Level Fort Worth Center
Fri 12:50:15 AM 34.6375 -96.0406 190° South 354 407 36,000  Level Fort Worth Center
Fri 12:51:15 AM 34.5417 -96.0597 189° South 354 407 36,000  Level Fort Worth Center
Fri 12:52:15 AM 34.4481 -96.0814 191° South 349 402 36,000  Level Fort Worth Center
Fri 12:53:15 AM 34.3522 -96.1031 191° South 354 407 36,000  Level Fort Worth Center
Fri 12:54:15 AM 34.2544 -96.1244 190° South 354 407 36,000 -50 Level Fort Worth Center
Fri 12:55:15 AM 34.1608 -96.1458 191° South 354 407 35,900 -1,550 Descending Fort Worth Center
Fri 12:56:15 AM 34.0692 -96.1622 188° South 348 400 32,900 -3,200 Descending Fort Worth Center
Fri 12:57:15 AM 33.9753 -96.1814 190° South 343 395 29,500 -3,250 Descending Fort Worth Center
Fri 12:58:15 AM 33.8817 -96.2025 191° South 349 402 26,400 -2,750 Descending Fort Worth Center
Fri 12:59:15 AM 33.7881 -96.2239 191° South 354 407 24,000 -2,300 Descending Fort Worth Center
Fri 01:00:15 AM 33.6983 -96.2425 190° South 339 390 21,800 -2,500 Descending Fort Worth Center
Fri 01:01:15 AM 33.6047 -96.2611 189° South 334 384 19,000 -2,500 Descending Fort Worth Center
Fri 01:02:15 AM 33.5131 -96.2822 191° South 334 384 16,800 -2,450 Descending Fort Worth Center
Fri 01:03:15 AM 33.4256 -96.3008 190° South 334 384 14,100 -2,450 Descending Fort Worth Center
Fri 01:04:15 AM 33.3358 -96.3194 190° South 334 384 11,900 -2,050 Descending Fort Worth Center
Fri 01:05:15 AM 33.2361 -96.3556 197° South 362 417 10,000 -1,000 Descending Fort Worth Center
Fri 01:06:15 AM 33.1633 -96.4183 216° Southwest 345 397 9,900 -550 Descending Fort Worth Center
Fri 01:07:15 AM 33.1075 -96.4711 218° Southwest 311 358 8,900 -1,300 Descending Fort Worth Center
Fri 01:08:15 AM 33.0453 -96.5286 218° Southwest 275 316 7,300 -1,450 Descending Fort Worth Center
Fri 01:09:15 AM 32.9872 -96.5836 218° Southwest 267 307 6,000 -1,148 Descending Fort Worth Center
Fri 01:11:00 AM 32.9047 -96.7619 220° Southwest  Level FlightAware Approximate
Fri 01:12:05 AM 32.8333 -96.7167 220° Southwest 213 245 2,900  Level Dallas / Fort Worth TRACON
Fri 01:13:05 AM 32.8000 -96.7667 232° Southwest 175 201 1,900 -750 Descending Dallas / Fort Worth TRACON
Fri 01:14:05 AM 32.8167 -96.8000 301° West 135 155 1,400 -500 Descending Dallas / Fort Worth TRACON

Login

Don't have an account? Register now (free) for customized features, flight alerts, and more!